Terminal Aerodrome Forecast
Issued by NWS Twin Cities, MN

Current Version | Previous Version | Text Only | Print | Product List | Glossary On
Versions: 1 2 3 4 5 6 7 8 9 10 11 12 13 14 15 16 17 18 19 20 21 22 23 24 25 26 27 28 29 30 31
552
FTUS43 KMPX 122321
TAFMSP
TAF
KMSP 122321Z 1300/1406 16007KT P6SM SCT020 OVC035
     FM130200 15004KT P6SM BKN040
     FM131000 29006KT 6SM -SN BR OVC012
      TEMPO 1310/1313 5SM -FZDZ BR
     FM131500 32016G29KT P6SM VCSH OVC008
     FM131800 32018G30KT P6SM OVC015
     FM140000 34013G19KT P6SM OVC025=

USA.gov is the U.S. government's official web portal to all federal, state and local government web resources and services.